createdAt,value
2023-01-05T00:01:21.680Z,18.57
2023-01-05T00:03:48.207Z,20.23
2023-01-05T00:06:17.675Z,19.60
2023-01-05T00:08:44.687Z,13.00
2023-01-05T00:11:37.955Z,9.50
2023-01-05T00:14:23.220Z,13.90
2023-01-05T00:17:08.875Z,17.37
2023-01-05T00:19:53.937Z,12.57
2023-01-05T00:22:32.497Z,16.17
2023-01-05T00:25:12.841Z,19.70
2023-01-05T00:27:41.085Z,16.57
2023-01-05T00:30:08.612Z,13.77
2023-01-05T00:32:35.107Z,14.70
2023-01-05T00:35:01.985Z,17.47
2023-01-05T00:37:31.550Z,15.50
2023-01-05T00:39:58.542Z,13.20
2023-01-05T00:42:24.953Z,12.23
2023-01-05T00:44:51.418Z,14.70
2023-01-05T00:47:17.839Z,15.30
2023-01-05T00:49:44.218Z,10.60
2023-01-05T00:52:10.617Z,9.27
2023-01-05T00:54:37.027Z,10.93
2023-01-05T00:57:03.556Z,10.50
2023-01-05T00:59:29.965Z,9.93
2023-01-05T01:01:56.562Z,11.07
2023-01-05T01:04:23.476Z,9.10
2023-01-05T01:06:50.086Z,10.30
2023-01-05T01:09:16.737Z,10.70
2023-01-05T01:11:43.380Z,8.87
2023-01-05T01:14:12.057Z,12.83
2023-01-05T01:16:38.659Z,13.90
2023-01-05T01:19:05.803Z,9.77
2023-01-05T01:21:32.334Z,18.83
2023-01-05T01:23:58.715Z,13.03
2023-01-05T01:26:25.180Z,11.03
2023-01-05T01:28:51.753Z,12.83
2023-01-05T01:31:18.495Z,13.63
2023-01-05T01:33:44.925Z,7.00
2023-01-05T01:36:11.346Z,16.93
2023-01-05T01:38:37.929Z,11.47
2023-01-05T01:41:04.609Z,15.37
2023-01-05T01:43:47.115Z,8.57
2023-01-05T01:46:14.739Z,9.80
2023-01-05T01:48:44.628Z,12.83
2023-01-05T01:51:24.779Z,14.27
2023-01-05T01:53:54.236Z,10.80
2023-01-05T01:56:22.928Z,7.80
2023-01-05T01:58:49.687Z,6.77
2023-01-05T02:01:16.302Z,12.23
2023-01-05T02:03:43.188Z,7.00
2023-01-05T02:06:10.597Z,8.87
2023-01-05T02:08:36.998Z,8.03
2023-01-05T02:11:25.279Z,10.30
2023-01-05T02:13:58.514Z,7.03
2023-01-05T02:16:38.318Z,10.67
2023-01-05T02:19:22.371Z,9.33
2023-01-05T02:22:31.787Z,8.90
2023-01-05T02:25:16.920Z,8.40
2023-01-05T02:28:25.100Z,7.37
2023-01-05T02:31:13.404Z,7.40
2023-01-05T02:33:54.923Z,6.87
2023-01-05T02:37:01.487Z,7.77
2023-01-05T02:39:42.667Z,10.37
2023-01-05T02:42:13.391Z,7.03
2023-01-05T02:44:39.812Z,4.93
2023-01-05T02:47:28.330Z,3.70
2023-01-05T02:50:00.869Z,5.27
2023-01-05T02:52:27.722Z,5.67
2023-01-05T02:54:58.838Z,4.43
2023-01-05T02:57:47.692Z,8.57
2023-01-05T03:00:21.501Z,7.60
2023-01-05T03:02:49.634Z,8.03
2023-01-05T03:05:24.430Z,8.83
2023-01-05T03:07:51.602Z,7.10
2023-01-05T03:10:36.579Z,10.30
2023-01-05T03:13:24.702Z,11.63
2023-01-05T03:15:52.255Z,10.77
2023-01-05T03:18:20.679Z,8.13
2023-01-05T03:20:49.709Z,10.17
2023-01-05T03:23:35.778Z,11.40
2023-01-05T03:26:21.245Z,10.70
2023-01-05T03:29:14.009Z,13.27
2023-01-05T03:32:21.695Z,13.50
2023-01-05T03:35:16.777Z,10.50
2023-01-05T03:38:12.268Z,13.33
2023-01-05T03:40:43.313Z,10.70
2023-01-05T03:43:10.094Z,18.33
2023-01-05T03:45:42.332Z,11.70
2023-01-05T03:48:08.732Z,18.20
2023-01-05T03:50:36.493Z,9.87
2023-01-05T03:53:03.832Z,10.47
2023-01-05T03:55:30.240Z,14.67
2023-01-05T03:57:56.667Z,19.00
2023-01-05T04:00:23.154Z,13.80
2023-01-05T04:02:49.811Z,11.17
2023-01-05T04:05:16.360Z,8.97
2023-01-05T04:07:42.780Z,10.80
2023-01-05T04:10:09.550Z,13.00
2023-01-05T04:12:36.649Z,15.33
2023-01-05T04:15:06.530Z,14.83
2023-01-05T04:17:32.956Z,13.03
2023-01-05T04:19:59.386Z,11.90
2023-01-05T04:22:27.496Z,15.87
2023-01-05T04:24:54.321Z,13.40
2023-01-05T04:27:20.777Z,10.83
2023-01-05T04:29:47.500Z,12.97
2023-01-05T04:32:14.027Z,13.57
2023-01-05T04:34:40.395Z,15.90
2023-01-05T04:37:06.835Z,19.40
2023-01-05T04:39:33.292Z,13.00
2023-01-05T04:41:59.760Z,11.50
2023-01-05T04:44:26.133Z,12.87
2023-01-05T04:46:52.592Z,16.70
2023-01-05T04:49:19.174Z,20.90
2023-01-05T04:51:45.721Z,11.57
2023-01-05T04:54:12.210Z,14.37
2023-01-05T04:56:38.637Z,14.30
2023-01-05T04:59:05.042Z,20.17
2023-01-05T05:01:31.498Z,12.90
2023-01-05T05:03:58.159Z,14.13
2023-01-05T05:06:24.606Z,15.00
2023-01-05T05:08:51.044Z,13.73
2023-01-05T05:11:17.663Z,17.63
2023-01-05T05:13:44.068Z,19.10
2023-01-05T05:16:10.525Z,16.07
2023-01-05T05:18:37.097Z,12.37
2023-01-05T05:21:03.660Z,19.40
2023-01-05T05:23:30.073Z,16.77
2023-01-05T05:25:56.579Z,12.07
2023-01-05T05:28:28.363Z,17.73
2023-01-05T05:30:58.417Z,16.23
2023-01-05T05:33:25.246Z,19.37
2023-01-05T05:35:51.909Z,15.37
2023-01-05T05:38:19.878Z,14.73
2023-01-05T05:40:48.627Z,22.63
2023-01-05T05:43:15.175Z,11.20
2023-01-05T05:45:46.299Z,12.07
2023-01-05T05:48:16.380Z,19.40
2023-01-05T05:50:44.393Z,10.57
2023-01-05T05:53:10.875Z,13.50
2023-01-05T05:55:37.261Z,13.77
2023-01-05T05:58:03.693Z,15.40
2023-01-05T06:00:30.272Z,11.30
2023-01-05T06:02:57.149Z,14.10
2023-01-05T06:05:23.614Z,10.30
2023-01-05T06:07:50.178Z,11.70
2023-01-05T06:10:16.592Z,16.40
2023-01-05T06:12:43.181Z,12.73
2023-01-05T06:15:10.229Z,10.77
2023-01-05T06:17:36.681Z,15.87
2023-01-05T06:20:03.657Z,14.73
2023-01-05T06:22:30.081Z,16.57
2023-01-05T06:24:56.466Z,12.80
2023-01-05T06:27:22.916Z,13.33
2023-01-05T06:29:49.314Z,14.30
2023-01-05T06:32:15.746Z,21.10
2023-01-05T06:34:42.191Z,18.67
2023-01-05T06:37:08.609Z,24.27
2023-01-05T06:39:35.003Z,11.33
2023-01-05T06:42:01.445Z,19.30
2023-01-05T06:44:27.932Z,13.60
2023-01-05T06:46:54.315Z,14.10
2023-01-05T06:49:20.919Z,19.03
2023-01-05T06:51:47.597Z,21.13
2023-01-05T06:54:14.160Z,20.50
2023-01-05T06:56:40.567Z,16.20
2023-01-05T06:59:07.019Z,29.60
2023-01-05T07:01:33.553Z,14.17
2023-01-05T07:04:00.073Z,24.47
2023-01-05T07:06:26.608Z,19.07
2023-01-05T07:08:53.017Z,13.90
2023-01-05T07:11:19.515Z,14.73
2023-01-05T07:13:50.538Z,15.03
2023-01-05T07:16:17.838Z,11.57
2023-01-05T07:18:44.619Z,9.93
2023-01-05T07:21:11.040Z,14.90
2023-01-05T07:23:40.377Z,14.60
2023-01-05T07:26:08.839Z,14.67
2023-01-05T07:28:36.754Z,11.03
2023-01-05T07:31:04.138Z,14.23
2023-01-05T07:33:36.055Z,21.03
2023-01-05T07:36:05.838Z,14.23
2023-01-05T07:38:32.652Z,18.37
2023-01-05T07:41:00.463Z,14.97
2023-01-05T07:43:27.392Z,15.90
2023-01-05T07:46:00.798Z,10.63
2023-01-05T07:48:27.420Z,13.63
2023-01-05T07:51:02.466Z,14.93
2023-01-05T07:53:30.570Z,11.73
2023-01-05T07:55:58.489Z,10.97
2023-01-05T07:58:25.134Z,12.00
2023-01-05T08:00:51.590Z,11.23
2023-01-05T08:03:18.158Z,17.93
2023-01-05T08:05:45.048Z,18.67
2023-01-05T08:08:11.869Z,16.37
2023-01-05T08:10:39.645Z,13.13
2023-01-05T08:13:36.772Z,6.60
2023-01-05T08:16:03.342Z,15.73
2023-01-05T08:18:29.788Z,7.47
2023-01-05T08:20:58.622Z,8.63
2023-01-05T08:23:26.801Z,5.13
2023-01-05T08:25:54.839Z,4.33
2023-01-05T08:28:21.443Z,6.67
2023-01-05T08:30:48.134Z,4.67
2023-01-05T08:33:14.548Z,5.60
2023-01-05T08:35:42.101Z,6.00
2023-01-05T08:38:08.840Z,7.03
2023-01-05T08:40:37.134Z,5.43
2023-01-05T08:43:04.712Z,4.23
2023-01-05T08:45:32.307Z,6.93
2023-01-05T08:47:59.131Z,4.33
2023-01-05T08:50:25.578Z,4.00
2023-01-05T08:52:52.026Z,3.13
2023-01-05T08:55:18.691Z,5.23
2023-01-05T08:57:45.301Z,3.00
2023-01-05T09:00:12.271Z,3.13
2023-01-05T09:02:38.964Z,6.47
2023-01-05T09:05:06.205Z,1.50
2023-01-05T09:07:32.762Z,3.47
2023-01-05T09:09:59.182Z,5.40
2023-01-05T09:12:30.956Z,8.03
2023-01-05T09:15:03.111Z,6.77
2023-01-05T09:17:29.779Z,3.57
2023-01-05T09:19:56.873Z,4.37
2023-01-05T09:22:23.316Z,4.13
2023-01-05T09:24:49.773Z,2.53
2023-01-05T09:27:16.319Z,4.60
2023-01-05T09:29:42.724Z,10.67
2023-01-05T09:32:11.382Z,4.73
2023-01-05T09:34:37.783Z,5.13
2023-01-05T09:37:04.243Z,3.73
2023-01-05T09:39:30.725Z,6.67
2023-01-05T09:42:00.466Z,7.27
2023-01-05T09:44:30.872Z,3.10
2023-01-05T09:47:04.391Z,4.47
2023-01-05T09:49:31.476Z,11.77
2023-01-05T09:52:01.571Z,4.73
2023-01-05T09:54:31.228Z,6.23
2023-01-05T09:57:09.070Z,6.83
2023-01-05T09:59:47.424Z,9.37
2023-01-05T10:02:21.413Z,6.57
2023-01-05T10:04:48.887Z,6.60
2023-01-05T10:07:26.756Z,9.37
2023-01-05T10:09:55.071Z,5.80
2023-01-05T10:12:43.995Z,8.43
2023-01-05T10:15:14.657Z,9.60
2023-01-05T10:17:43.509Z,8.93
2023-01-05T10:20:18.187Z,16.83
2023-01-05T10:22:57.106Z,11.33
2023-01-05T10:25:38.796Z,11.80
2023-01-05T10:28:29.553Z,6.27
2023-01-05T10:31:24.040Z,10.33
2023-01-05T10:33:57.849Z,6.27
2023-01-05T10:40:16.688Z,10.83
2023-01-05T10:43:23.705Z,7.83
2023-01-05T10:46:19.869Z,10.50
2023-01-05T10:48:37.154Z,9.40
2023-01-05T10:51:04.820Z,12.43
2023-01-05T10:53:34.740Z,14.80
2023-01-05T10:56:14.852Z,15.20
2023-01-05T10:58:44.065Z,4.40
2023-01-05T11:01:19.994Z,6.33
2023-01-05T11:06:36.730Z,10.87
2023-01-05T11:09:22.928Z,8.70
2023-01-05T11:11:59.468Z,9.90
2023-01-05T11:14:27.712Z,11.43
2023-01-05T11:16:55.661Z,8.23
2023-01-05T11:19:26.461Z,11.30
2023-01-05T11:21:58.165Z,15.73
2023-01-05T11:24:32.384Z,7.77
2023-01-05T11:27:03.068Z,14.97
2023-01-05T11:29:30.372Z,14.60
2023-01-05T11:32:02.954Z,6.07
2023-01-05T11:34:47.003Z,10.03
2023-01-05T11:37:31.770Z,9.60
2023-01-05T11:40:03.662Z,12.83
2023-01-05T11:42:32.774Z,9.60
2023-01-05T11:45:06.743Z,6.40
2023-01-05T11:47:43.877Z,6.87
2023-01-05T11:50:14.106Z,10.30
2023-01-05T11:52:45.744Z,7.43
2023-01-05T11:55:21.761Z,9.33
2023-01-05T11:57:54.126Z,9.47
2023-01-05T12:00:35.207Z,7.67
2023-01-05T12:03:39.522Z,9.20
2023-01-05T12:06:17.620Z,8.27
2023-01-05T12:09:01.197Z,10.07
2023-01-05T12:11:31.434Z,9.47
2023-01-05T12:14:21.482Z,13.50
2023-01-05T12:16:58.224Z,4.50
2023-01-05T12:19:44.577Z,8.07
2023-01-05T12:22:54.397Z,7.87
2023-01-05T12:25:44.890Z,9.03
2023-01-05T12:28:40.910Z,7.83
2023-01-05T12:35:01.200Z,12.30
2023-01-05T12:38:08.598Z,12.63
2023-01-05T12:41:07.123Z,5.27
2023-01-05T12:43:57.717Z,10.90
2023-01-05T12:46:46.245Z,5.57
2023-01-05T12:49:18.752Z,8.07
2023-01-05T12:52:01.093Z,11.03
2023-01-05T12:55:04.304Z,5.23
2023-01-05T12:57:40.438Z,9.43
2023-01-05T13:00:12.910Z,8.43
2023-01-05T13:02:42.967Z,10.43
2023-01-05T13:05:18.466Z,7.13
2023-01-05T13:07:57.280Z,11.33
2023-01-05T13:10:39.834Z,11.13
2023-01-05T13:13:12.259Z,4.20
2023-01-05T13:15:59.418Z,6.70
2023-01-05T13:18:26.969Z,11.80
2023-01-05T13:20:57.558Z,6.37
2023-01-05T13:23:37.432Z,9.63
2023-01-05T13:26:11.767Z,6.80
2023-01-05T13:28:38.355Z,4.93
2023-01-05T13:31:40.342Z,8.00
2023-01-05T13:34:13.948Z,10.17
2023-01-05T13:37:13.749Z,12.23
2023-01-05T13:40:06.689Z,7.90
2023-01-05T13:43:11.305Z,8.33
2023-01-05T13:45:55.594Z,5.40
2023-01-05T13:48:58.076Z,7.00
2023-01-05T13:51:55.736Z,9.17
2023-01-05T13:54:37.841Z,4.37
2023-01-05T13:57:24.585Z,6.93
2023-01-05T14:00:05.116Z,8.73
2023-01-05T14:02:44.556Z,7.93
2023-01-05T14:05:17.212Z,6.30
2023-01-05T14:07:43.749Z,6.37
2023-01-05T14:10:23.726Z,10.17
2023-01-05T14:12:51.678Z,4.50
2023-01-05T14:15:38.487Z,8.70
2023-01-05T14:18:09.209Z,6.67
2023-01-05T14:20:40.744Z,6.93
2023-01-05T14:23:25.593Z,6.37
2023-01-05T14:25:54.279Z,6.10
2023-01-05T14:28:35.999Z,9.07
2023-01-05T14:31:11.348Z,4.47
2023-01-05T14:33:59.885Z,6.97
2023-01-05T14:36:30.596Z,5.50
2023-01-05T14:38:58.372Z,4.37
2023-01-05T14:41:26.843Z,8.40
2023-01-05T14:43:58.317Z,11.30
2023-01-05T14:46:26.329Z,6.07
2023-01-05T14:49:05.355Z,4.47
2023-01-05T14:51:32.757Z,4.63
2023-01-05T14:54:05.413Z,5.47
2023-01-05T14:56:35.449Z,6.80
2023-01-05T14:59:19.767Z,10.23
2023-01-05T15:01:51.792Z,4.67
2023-01-05T15:04:38.607Z,9.00
2023-01-05T15:07:08.027Z,5.10
2023-01-05T15:10:02.027Z,8.27
2023-01-05T15:12:37.770Z,7.47
2023-01-05T15:15:27.397Z,8.97
2023-01-05T15:18:18.685Z,5.87
2023-01-05T15:20:59.265Z,4.97
2023-01-05T15:23:45.967Z,7.07
2023-01-05T15:26:37.351Z,10.83
2023-01-05T15:29:28.732Z,9.13
2023-01-05T15:31:56.292Z,6.67
2023-01-05T15:34:42.019Z,8.20
2023-01-05T15:37:15.763Z,9.03
2023-01-05T15:39:48.383Z,7.53
2023-01-05T15:42:19.536Z,8.30
2023-01-05T15:44:48.504Z,7.87
2023-01-05T15:47:17.641Z,11.93
2023-01-05T15:49:44.448Z,9.77
2023-01-05T15:52:36.832Z,5.30
2023-01-05T15:55:12.109Z,6.23
2023-01-05T15:57:38.631Z,6.23
2023-01-05T16:00:17.169Z,6.30
2023-01-05T16:02:43.624Z,9.63
2023-01-05T16:05:27.529Z,9.20
2023-01-05T16:07:58.368Z,3.67
2023-01-05T16:10:48.919Z,15.07
2023-01-05T16:13:15.295Z,5.23
2023-01-05T16:15:42.397Z,9.40
2023-01-05T16:18:14.336Z,4.83
2023-01-05T16:20:42.192Z,7.50
2023-01-05T16:23:36.403Z,6.70
2023-01-05T16:26:03.571Z,6.23
2023-01-05T16:28:30.398Z,8.63
2023-01-05T16:30:57.115Z,7.40
2023-01-05T16:33:27.498Z,5.07
2023-01-05T16:36:19.224Z,9.40
2023-01-05T16:38:45.906Z,8.30
2023-01-05T16:41:26.609Z,10.30
2023-01-05T16:44:01.341Z,5.80
2023-01-05T16:46:33.633Z,6.47
2023-01-05T16:49:18.821Z,8.00
2023-01-05T16:51:45.553Z,9.30
2023-01-05T16:54:22.121Z,10.70
2023-01-05T16:57:01.688Z,6.90
2023-01-05T16:59:41.709Z,6.83
2023-01-05T17:02:36.390Z,5.23
2023-01-05T17:05:02.887Z,11.20
2023-01-05T17:07:29.394Z,4.63
2023-01-05T17:09:55.858Z,3.77
2023-01-05T17:12:22.386Z,8.37
2023-01-05T17:14:48.858Z,14.97
2023-01-05T17:17:15.321Z,7.77
2023-01-05T17:19:41.840Z,9.90
2023-01-05T17:22:11.567Z,7.37
2023-01-05T17:24:39.448Z,8.63
2023-01-05T17:27:06.022Z,5.30
2023-01-05T17:29:32.820Z,9.50
2023-01-05T17:31:59.345Z,6.97
2023-01-05T17:34:25.917Z,11.77
2023-01-05T17:36:54.981Z,9.83
2023-01-05T17:39:22.134Z,10.23
2023-01-05T17:41:48.952Z,7.27
2023-01-05T17:44:16.134Z,8.07
2023-01-05T17:46:44.955Z,7.60
2023-01-05T17:49:14.818Z,8.20
2023-01-05T17:51:41.663Z,8.23
2023-01-05T17:54:08.179Z,4.17
2023-01-05T17:56:34.864Z,5.57
2023-01-05T17:59:03.477Z,10.03
2023-01-05T18:01:30.044Z,16.83
2023-01-05T18:03:56.490Z,16.20
2023-01-05T18:06:22.863Z,14.03
2023-01-05T18:08:49.462Z,11.67
2023-01-05T18:11:17.377Z,6.37
2023-01-05T18:13:44.685Z,10.83
2023-01-05T18:16:13.645Z,6.80
2023-01-05T18:18:40.282Z,6.43
2023-01-05T18:21:07.146Z,10.60
2023-01-05T18:23:33.901Z,7.43
2023-01-05T18:26:05.659Z,8.57
2023-01-05T18:28:32.100Z,8.77
2023-01-05T18:30:58.644Z,6.70
2023-01-05T18:33:25.111Z,10.20
2023-01-05T18:38:21.620Z,8.23
2023-01-05T18:40:49.749Z,9.53
2023-01-05T18:43:17.033Z,11.37
2023-01-05T18:45:43.525Z,9.73
2023-01-05T18:48:09.954Z,8.23
2023-01-05T18:50:40.356Z,11.50
2023-01-05T18:53:07.084Z,13.30
2023-01-05T18:55:33.511Z,12.27
2023-01-05T18:57:59.952Z,9.83
2023-01-05T19:00:26.454Z,8.50
2023-01-05T19:02:52.844Z,13.23
2023-01-05T19:05:19.242Z,149.77
2023-01-05T19:07:45.831Z,11.80
2023-01-05T19:10:12.359Z,11.20
2023-01-05T19:12:38.804Z,10.23
2023-01-05T19:15:05.520Z,10.40
2023-01-05T19:17:33.601Z,14.83
2023-01-05T19:20:00.226Z,9.30
2023-01-05T19:22:27.111Z,11.03
2023-01-05T19:24:53.778Z,12.23
2023-01-05T19:27:20.265Z,12.33
2023-01-05T19:29:46.809Z,15.37
2023-01-05T19:32:13.272Z,19.20
2023-01-05T19:34:42.123Z,15.93
2023-01-05T19:37:08.523Z,14.27
2023-01-05T19:39:35.000Z,17.53
2023-01-05T19:42:01.487Z,11.63
2023-01-05T19:44:27.949Z,11.87
2023-01-05T19:46:54.404Z,17.60
2023-01-05T19:49:22.922Z,18.10
2023-01-05T19:51:49.879Z,19.33
2023-01-05T19:54:16.751Z,18.67
2023-01-05T19:56:44.185Z,19.67
2023-01-05T19:59:32.875Z,52.50
2023-01-05T20:02:04.407Z,20.70
2023-01-05T20:04:31.293Z,22.63
2023-01-05T20:06:58.148Z,30.63
2023-01-05T20:09:24.990Z,23.60
2023-01-05T20:11:54.749Z,18.70
2023-01-05T20:14:30.911Z,21.60
2023-01-05T20:17:01.301Z,19.60
2023-01-05T20:19:28.905Z,20.47
2023-01-05T20:21:56.956Z,18.43
2023-01-05T20:24:25.419Z,18.03
2023-01-05T20:26:53.896Z,19.27
2023-01-05T20:29:22.206Z,21.20
2023-01-05T20:32:00.721Z,21.53
2023-01-05T20:34:31.936Z,21.60
2023-01-05T20:36:59.670Z,20.93
2023-01-05T20:39:26.162Z,24.67
2023-01-05T20:41:53.725Z,25.70
2023-01-05T20:44:23.589Z,23.70
2023-01-05T20:46:51.640Z,25.23
2023-01-05T20:49:18.171Z,25.63
2023-01-05T20:51:44.599Z,23.53
2023-01-05T20:54:11.733Z,25.27
2023-01-05T20:56:39.857Z,24.03
2023-01-05T20:59:10.705Z,25.50
2023-01-05T21:01:37.269Z,23.57
2023-01-05T21:04:04.923Z,20.97
2023-01-05T21:06:31.325Z,21.37
2023-01-05T21:08:57.830Z,21.70
2023-01-05T21:11:25.915Z,29.17
2023-01-05T21:13:54.391Z,23.13
2023-01-05T21:16:30.334Z,31.20
2023-01-05T21:18:57.879Z,29.30
2023-01-05T21:21:26.308Z,25.73
2023-01-05T21:23:53.627Z,26.03
2023-01-05T21:26:21.833Z,33.17
2023-01-05T21:28:50.422Z,28.13
2023-01-05T21:31:19.197Z,38.33
2023-01-05T21:33:46.457Z,36.43
2023-01-05T21:36:15.878Z,31.63
2023-01-05T21:39:01.485Z,25.30
2023-01-05T21:41:51.608Z,27.73
2023-01-05T21:44:18.590Z,36.00
2023-01-05T21:46:44.985Z,39.73
2023-01-05T21:49:12.517Z,29.60
2023-01-05T21:51:57.529Z,35.80
2023-01-05T21:54:42.736Z,37.83
2023-01-05T21:57:09.481Z,38.33
2023-01-05T21:59:36.117Z,34.67
2023-01-05T22:02:02.661Z,29.20
2023-01-05T22:04:29.143Z,36.43
2023-01-05T22:06:55.611Z,41.40
2023-01-05T22:09:22.023Z,43.70
2023-01-05T22:11:48.529Z,36.33
2023-01-05T22:14:15.143Z,36.10
2023-01-05T22:16:41.627Z,46.33
2023-01-05T22:19:08.603Z,45.03
2023-01-05T22:21:35.233Z,33.43
2023-01-05T22:24:01.710Z,40.33
2023-01-05T22:26:28.160Z,41.87
2023-01-05T22:28:54.595Z,34.47
2023-01-05T22:31:24.619Z,35.40
2023-01-05T22:33:54.500Z,28.77
2023-01-05T22:36:22.359Z,31.90
2023-01-05T22:38:49.821Z,29.80
2023-01-05T22:41:20.657Z,37.07
2023-01-05T22:43:47.588Z,31.33
2023-01-05T22:46:25.167Z,34.23
2023-01-05T22:48:53.078Z,35.37
2023-01-05T22:51:22.185Z,35.50
2023-01-05T22:53:49.344Z,33.90
2023-01-05T22:56:17.305Z,35.83
2023-01-05T22:58:45.010Z,28.07
2023-01-05T23:01:13.516Z,34.23
2023-01-05T23:03:40.517Z,30.00
2023-01-05T23:06:07.342Z,35.53
2023-01-05T23:08:35.262Z,39.83
2023-01-05T23:11:02.137Z,42.53
2023-01-05T23:13:28.806Z,43.77
2023-01-05T23:15:56.198Z,36.60
2023-01-05T23:18:23.610Z,31.90
2023-01-05T23:21:00.438Z,32.93
2023-01-05T23:23:27.966Z,44.93
2023-01-05T23:25:54.555Z,38.87
2023-01-05T23:28:22.508Z,47.77
2023-01-05T23:30:50.728Z,45.83
2023-01-05T23:33:19.435Z,40.47
2023-01-05T23:35:46.792Z,36.40
2023-01-05T23:38:13.687Z,41.43
2023-01-05T23:40:44.534Z,39.20
2023-01-05T23:43:11.785Z,38.70
2023-01-05T23:45:41.604Z,45.77
2023-01-05T23:48:10.068Z,40.20
2023-01-05T23:50:36.686Z,43.43
2023-01-05T23:53:03.996Z,41.83
2023-01-05T23:55:30.610Z,45.33
2023-01-05T23:57:58.276Z,39.87
